Hickory, North Carolina
Current Conditions -  °F | °C
As of 2:53 PM on Sunday 21 Dec 2014 (Local Time) from KHKY Reporting Station
Haze Haze  
Wind Chill: 43°   Ceiling: 1700
Heat Index: 45°   Visibility: 9mi
Dew Point: 37°   Wind: 5mph
Humidity: 74%   Direction: 20°NNE
Pressure: 30.19"   Gusts: NA
Location:  35.74°N, 81.33°W
Report Text: KHKY 211953Z 02004KT 9SM BR OVC017 07/03 A3019 RMK AO2 SLP215 T00720028
Loading
Personal Weather Stations






























Interactive Weather Map New forecast layout! Learn more

10-Day Weather Forecast

Advertisements
Track Severe Weather on mobile